createdAt,value
2018-11-26T00:01:59.045Z,88.04
2018-11-26T00:04:30.122Z,87.98
2018-11-26T00:07:01.218Z,88.19
2018-11-26T00:09:32.147Z,88.03
2018-11-26T00:12:04.309Z,87.82
2018-11-26T00:14:35.526Z,88.02
2018-11-26T00:17:06.583Z,88.12
2018-11-26T00:19:37.637Z,88.18
2018-11-26T00:22:08.825Z,87.87
2018-11-26T00:24:40.067Z,87.72
2018-11-26T00:27:11.093Z,87.87
2018-11-26T00:29:42.374Z,87.54
2018-11-26T00:32:13.454Z,87.49
2018-11-26T00:34:44.752Z,87.57
2018-11-26T00:37:15.852Z,87.53
2018-11-26T00:39:47.519Z,87.67
2018-11-26T00:42:18.661Z,87.29
2018-11-26T00:44:49.594Z,87.35
2018-11-26T00:47:20.766Z,86.85
2018-11-26T00:49:52.036Z,86.79
2018-11-26T00:52:23.117Z,86.70
2018-11-26T00:54:54.238Z,86.56
2018-11-26T00:57:25.182Z,86.60
2018-11-26T00:59:56.272Z,86.30
2018-11-26T01:02:27.380Z,86.77
2018-11-26T01:04:59.274Z,86.30
2018-11-26T01:07:30.433Z,86.63
2018-11-26T01:10:01.879Z,86.48
2018-11-26T01:12:32.879Z,86.39
2018-11-26T01:15:04.062Z,86.00
2018-11-26T01:17:35.359Z,86.02
2018-11-26T01:20:06.937Z,85.97
2018-11-26T01:22:38.373Z,85.94
2018-11-26T01:25:09.650Z,85.95
2018-11-26T01:27:40.793Z,85.81
2018-11-26T01:30:12.369Z,86.27
2018-11-26T01:32:43.562Z,86.06
2018-11-26T01:35:14.618Z,86.24
2018-11-26T01:37:45.760Z,85.97
2018-11-26T01:40:43.797Z,85.94
2018-11-26T01:43:15.431Z,86.28
2018-11-26T01:45:46.695Z,86.33
2018-11-26T01:48:17.851Z,86.44
2018-11-26T01:50:48.985Z,86.36
2018-11-26T01:53:20.120Z,85.84
2018-11-26T01:55:51.177Z,85.63
2018-11-26T01:58:22.357Z,85.65
2018-11-26T02:00:53.381Z,85.42
2018-11-26T02:03:24.835Z,84.97
2018-11-26T02:05:56.871Z,85.18
2018-11-26T02:08:28.047Z,85.58
2018-11-26T02:10:59.222Z,85.52
2018-11-26T02:13:30.419Z,85.59
2018-11-26T02:16:01.781Z,86.00
2018-11-26T02:18:32.797Z,85.15
2018-11-26T02:21:04.058Z,85.21
2018-11-26T02:23:35.317Z,84.97
2018-11-26T02:26:06.636Z,85.61
2018-11-26T02:28:37.920Z,85.93
2018-11-26T02:31:09.059Z,85.35
2018-11-26T02:33:40.318Z,85.32
2018-11-26T02:36:11.376Z,85.62
2018-11-26T02:38:42.646Z,85.31
2018-11-26T02:41:13.864Z,85.56
2018-11-26T02:43:45.043Z,86.03
2018-11-26T02:46:16.284Z,85.83
2018-11-26T02:48:47.481Z,86.04
2018-11-26T02:51:18.602Z,86.20
2018-11-26T02:53:49.788Z,86.46
2018-11-26T02:56:20.793Z,86.48
2018-11-26T02:58:51.803Z,86.20
2018-11-26T03:01:23.054Z,86.53
2018-11-26T03:03:54.087Z,86.81
2018-11-26T03:06:25.334Z,87.43
2018-11-26T03:08:57.805Z,87.42
2018-11-26T03:11:28.854Z,87.78
2018-11-26T03:13:59.994Z,87.74
2018-11-26T03:16:31.354Z,87.86
2018-11-26T03:19:02.551Z,88.07
2018-11-26T03:21:33.692Z,87.85
2018-11-26T03:24:04.858Z,88.21
2018-11-26T03:26:35.967Z,88.47
2018-11-26T03:29:07.173Z,88.26
2018-11-26T03:31:38.323Z,88.43
2018-11-26T03:34:09.416Z,88.57
2018-11-26T03:36:40.387Z,88.82
2018-11-26T03:39:11.539Z,88.95
2018-11-26T03:41:42.622Z,88.85
2018-11-26T03:44:13.640Z,89.44
2018-11-26T03:46:44.850Z,89.41
2018-11-26T03:49:15.778Z,89.38
2018-11-26T03:51:46.851Z,89.35
2018-11-26T03:54:17.879Z,89.43
2018-11-26T03:56:48.963Z,89.57
2018-11-26T03:59:19.947Z,89.41
2018-11-26T04:01:50.895Z,89.13
2018-11-26T04:04:21.894Z,89.22
2018-11-26T04:06:52.893Z,89.05
2018-11-26T04:09:23.929Z,89.22
2018-11-26T04:11:54.989Z,89.30
2018-11-26T04:14:26.405Z,88.96
2018-11-26T04:16:57.404Z,88.62
2018-11-26T04:19:28.422Z,88.59
2018-11-26T04:21:59.575Z,88.61
2018-11-26T04:24:30.684Z,88.82
2018-11-26T04:27:01.838Z,89.12
2018-11-26T04:29:32.868Z,89.25
2018-11-26T04:32:03.876Z,89.58
2018-11-26T04:34:35.134Z,89.54
2018-11-26T04:37:06.488Z,89.68
2018-11-26T04:39:37.581Z,90.01
2018-11-26T04:42:08.927Z,89.64
2018-11-26T04:44:40.014Z,90.12
2018-11-26T04:47:11.119Z,89.87
2018-11-26T04:49:42.193Z,90.32
2018-11-26T04:52:13.430Z,90.27
2018-11-26T04:54:44.895Z,90.14
2018-11-26T04:57:15.931Z,90.25
2018-11-26T04:59:46.914Z,90.14
2018-11-26T05:02:18.060Z,90.13
2018-11-26T05:04:49.161Z,89.96
2018-11-26T05:07:20.194Z,89.73
2018-11-26T05:09:51.327Z,89.86
2018-11-26T05:12:22.313Z,89.85
2018-11-26T05:14:53.471Z,90.04
2018-11-26T05:17:24.571Z,89.61
2018-11-26T05:19:55.662Z,89.70
2018-11-26T05:22:26.863Z,89.60
2018-11-26T05:24:57.980Z,89.62
2018-11-26T05:27:28.976Z,89.47
2018-11-26T05:30:00.136Z,89.52
2018-11-26T05:32:31.065Z,89.54
2018-11-26T05:35:02.050Z,89.15
2018-11-26T05:37:33.142Z,89.55
2018-11-26T05:40:04.323Z,89.31
2018-11-26T05:42:35.510Z,89.29
2018-11-26T05:45:09.002Z,89.07
2018-11-26T05:47:40.151Z,89.32
2018-11-26T05:50:17.380Z,89.35
2018-11-26T05:52:48.433Z,89.28
2018-11-26T05:55:19.804Z,89.25
2018-11-26T05:57:50.926Z,89.12
2018-11-26T06:00:36.228Z,88.78
2018-11-26T06:03:07.929Z,88.77
2018-11-26T06:05:38.845Z,88.48
2018-11-26T06:08:10.038Z,88.61
2018-11-26T06:10:41.282Z,88.94
2018-11-26T06:13:12.475Z,88.67
2018-11-26T06:15:43.695Z,88.58
2018-11-26T06:18:15.014Z,88.69
2018-11-26T06:20:46.285Z,88.60
2018-11-26T06:23:17.456Z,88.26
2018-11-26T06:25:48.529Z,88.23
2018-11-26T06:28:19.442Z,88.30
2018-11-26T06:30:50.366Z,88.26
2018-11-26T06:33:21.390Z,88.57
2018-11-26T06:35:52.395Z,88.75
2018-11-26T06:38:23.380Z,88.46
2018-11-26T06:40:54.311Z,88.56
2018-11-26T06:43:25.264Z,88.60
2018-11-26T06:45:56.202Z,88.78
2018-11-26T06:48:27.110Z,88.87
2018-11-26T06:50:58.033Z,88.98
2018-11-26T06:53:28.886Z,88.99
2018-11-26T06:55:59.927Z,88.89
2018-11-26T06:58:30.866Z,89.85
2018-11-26T07:01:02.017Z,89.81
2018-11-26T07:03:32.877Z,90.54
2018-11-26T07:06:03.922Z,90.62
2018-11-26T07:08:34.770Z,91.03
2018-11-26T07:11:06.062Z,91.33
2018-11-26T07:13:37.138Z,91.86
2018-11-26T07:16:08.416Z,92.14
2018-11-26T07:18:39.342Z,92.20
2018-11-26T07:21:10.378Z,92.48
2018-11-26T07:23:41.223Z,92.40
2018-11-26T07:26:12.161Z,92.61
2018-11-26T07:28:43.017Z,92.57
2018-11-26T07:31:13.964Z,92.48
2018-11-26T07:33:44.980Z,92.60
2018-11-26T07:36:15.911Z,92.52
2018-11-26T07:38:46.752Z,92.66
2018-11-26T07:41:17.747Z,92.80
2018-11-26T07:43:48.666Z,92.67
2018-11-26T07:46:19.732Z,92.54
2018-11-26T07:48:50.581Z,92.47
2018-11-26T07:51:21.615Z,92.67
2018-11-26T07:53:52.510Z,92.67
2018-11-26T07:56:23.460Z,92.76
2018-11-26T07:58:54.357Z,92.76
2018-11-26T08:01:25.619Z,92.66
2018-11-26T08:03:56.599Z,92.50
2018-11-26T08:06:27.629Z,92.47
2018-11-26T08:08:58.475Z,92.55
2018-11-26T08:11:29.411Z,92.54
2018-11-26T08:14:00.334Z,92.44
2018-11-26T08:16:31.289Z,92.41
2018-11-26T08:19:02.253Z,92.36
2018-11-26T08:21:33.185Z,91.86
2018-11-26T08:24:04.202Z,92.42
2018-11-26T08:26:35.139Z,92.60
2018-11-26T08:29:06.809Z,92.07
2018-11-26T08:31:37.698Z,91.91
2018-11-26T08:34:08.756Z,91.97
2018-11-26T08:36:48.153Z,91.99
2018-11-26T08:39:20.628Z,91.61
2018-11-26T08:41:54.768Z,91.64
2018-11-26T08:44:47.064Z,91.51
2018-11-26T08:47:34.842Z,91.81
2018-11-26T08:50:05.939Z,91.25
2018-11-26T08:52:36.951Z,91.59
2018-11-26T08:55:09.142Z,91.17
2018-11-26T08:57:40.083Z,91.59
2018-11-26T09:00:12.657Z,90.83
2018-11-26T09:02:49.683Z,91.19
2018-11-26T09:05:37.024Z,91.73
2018-11-26T09:08:08.097Z,91.56
2018-11-26T09:10:39.204Z,91.18
2018-11-26T09:13:10.333Z,91.33
2018-11-26T09:15:41.266Z,90.79
2018-11-26T09:18:12.370Z,91.06
2018-11-26T09:20:43.304Z,91.55
2018-11-26T09:23:14.309Z,91.54
2018-11-26T09:25:45.165Z,91.29
2018-11-26T09:28:16.205Z,90.78
2018-11-26T09:30:47.298Z,91.08
2018-11-26T09:33:18.403Z,90.76
2018-11-26T09:35:49.441Z,91.04
2018-11-26T09:38:20.365Z,91.08
2018-11-26T09:40:51.473Z,91.34
2018-11-26T09:43:22.312Z,91.47
2018-11-26T09:45:53.163Z,91.35
2018-11-26T09:48:24.090Z,91.21
2018-11-26T09:50:55.151Z,91.68
2018-11-26T09:53:26.086Z,91.47
2018-11-26T09:55:57.073Z,91.88
2018-11-26T09:58:28.017Z,91.26
2018-11-26T10:00:59.122Z,91.30
2018-11-26T10:03:30.048Z,91.13
2018-11-26T10:06:00.887Z,90.80
2018-11-26T10:08:31.770Z,91.56
2018-11-26T10:11:02.859Z,91.23
2018-11-26T10:13:33.706Z,91.55
2018-11-26T10:16:04.723Z,91.99
2018-11-26T10:18:35.612Z,91.80
2018-11-26T10:21:06.627Z,91.58
2018-11-26T10:23:37.603Z,91.82
2018-11-26T10:26:08.535Z,91.53
2018-11-26T10:28:39.584Z,91.60
2018-11-26T10:31:10.523Z,91.50
2018-11-26T10:33:41.444Z,92.10
2018-11-26T10:36:12.270Z,91.75
2018-11-26T10:38:43.109Z,91.67
2018-11-26T10:41:14.169Z,91.56
2018-11-26T10:43:45.093Z,91.75
2018-11-26T10:46:16.239Z,91.81
2018-11-26T10:48:47.169Z,91.67
2018-11-26T10:51:18.097Z,92.07
2018-11-26T10:53:49.020Z,92.18
2018-11-26T10:56:20.001Z,92.11
2018-11-26T10:58:50.930Z,92.33
2018-11-26T11:01:45.466Z,92.36
2018-11-26T11:04:16.384Z,91.62
2018-11-26T11:06:47.396Z,92.30
2018-11-26T11:09:18.334Z,91.78
2018-11-26T11:11:49.167Z,91.68
2018-11-26T11:14:19.965Z,91.95
2018-11-26T11:16:50.776Z,92.18
2018-11-26T11:19:21.715Z,92.21
2018-11-26T11:21:52.527Z,92.28
2018-11-26T11:24:23.366Z,91.98
2018-11-26T11:26:54.492Z,91.79
2018-11-26T11:29:25.427Z,91.82
2018-11-26T11:31:56.371Z,91.93
2018-11-26T11:34:27.262Z,91.71
2018-11-26T11:36:58.277Z,91.55
2018-11-26T11:39:29.416Z,92.32
2018-11-26T11:42:00.236Z,92.34
2018-11-26T11:44:31.186Z,92.23
2018-11-26T11:47:02.017Z,92.00
2018-11-26T11:49:32.857Z,91.95
2018-11-26T11:52:03.861Z,92.21
2018-11-26T11:54:34.965Z,92.18
2018-11-26T11:57:06.444Z,92.57
2018-11-26T11:59:37.273Z,92.18
2018-11-26T12:02:10.079Z,92.52
2018-11-26T12:04:40.920Z,92.28
2018-11-26T12:07:11.831Z,91.97
2018-11-26T12:09:42.852Z,92.06
2018-11-26T12:12:13.863Z,92.03
2018-11-26T12:14:44.742Z,92.35
2018-11-26T12:17:16.004Z,91.62
2018-11-26T12:19:47.100Z,92.44
2018-11-26T12:22:18.012Z,92.35
2018-11-26T12:24:49.111Z,92.58
2018-11-26T12:27:20.650Z,92.52
2018-11-26T12:29:51.672Z,92.82
2018-11-26T12:32:22.565Z,92.21
2018-11-26T12:34:53.698Z,92.51
2018-11-26T12:37:24.834Z,92.28
2018-11-26T12:39:56.040Z,92.29
2018-11-26T12:42:26.873Z,92.39
2018-11-26T12:44:57.981Z,92.39
2018-11-26T12:47:28.917Z,92.68
2018-11-26T12:49:59.923Z,92.52
2018-11-26T12:52:31.172Z,92.25
2018-11-26T12:55:02.017Z,92.12
2018-11-26T12:57:33.225Z,91.60
2018-11-26T13:00:04.258Z,92.19
2018-11-26T13:02:35.120Z,92.62
2018-11-26T13:05:07.201Z,92.45
2018-11-26T13:07:38.212Z,92.70
2018-11-26T13:10:17.228Z,92.41
2018-11-26T13:12:49.175Z,92.20
2018-11-26T13:15:24.686Z,92.59
2018-11-26T13:17:55.621Z,92.74
2018-11-26T13:20:28.625Z,93.08
2018-11-26T13:22:59.768Z,92.51
2018-11-26T13:25:32.600Z,92.76
2018-11-26T13:28:04.770Z,92.88
2018-11-26T13:30:46.859Z,92.90
2018-11-26T13:33:19.680Z,93.08
2018-11-26T13:35:51.324Z,92.87
2018-11-26T13:38:22.255Z,92.44
2018-11-26T13:40:53.441Z,92.72
2018-11-26T13:43:24.368Z,92.76
2018-11-26T13:45:55.205Z,93.13
2018-11-26T13:48:26.162Z,92.98
2018-11-26T13:50:58.165Z,93.03
2018-11-26T13:53:29.029Z,93.08
2018-11-26T13:56:00.192Z,93.17
2018-11-26T13:58:31.077Z,93.24
2018-11-26T14:01:01.882Z,93.36
2018-11-26T14:03:33.106Z,93.24
2018-11-26T14:06:04.107Z,93.33
2018-11-26T14:08:34.965Z,93.20
2018-11-26T14:11:06.048Z,93.04
2018-11-26T14:13:37.151Z,93.26
2018-11-26T14:16:08.561Z,93.16
2018-11-26T14:18:39.408Z,93.19
2018-11-26T14:21:10.418Z,93.33
2018-11-26T14:23:41.267Z,93.11
2018-11-26T14:26:12.701Z,92.91
2018-11-26T14:28:43.652Z,93.21
2018-11-26T14:31:15.563Z,93.30
2018-11-26T14:33:47.037Z,93.22
2018-11-26T14:36:17.955Z,93.03
2018-11-26T14:38:48.882Z,93.23
2018-11-26T14:41:19.903Z,93.33
2018-11-26T14:43:51.104Z,93.44
2018-11-26T14:46:22.028Z,93.37
2018-11-26T14:48:53.044Z,93.41
2018-11-26T14:51:24.320Z,93.46
2018-11-26T14:53:55.331Z,93.57
2018-11-26T14:56:26.243Z,93.43
2018-11-26T14:58:57.112Z,93.37
2018-11-26T15:01:28.031Z,93.43
2018-11-26T15:03:59.053Z,93.33
2018-11-26T15:06:29.977Z,93.42
2018-11-26T15:09:00.907Z,93.36
2018-11-26T15:11:31.838Z,93.26
2018-11-26T15:14:02.770Z,93.38
2018-11-26T15:16:33.715Z,93.49
2018-11-26T15:19:04.731Z,93.62
2018-11-26T15:21:35.641Z,93.55
2018-11-26T15:24:06.701Z,93.71
2018-11-26T15:26:37.619Z,93.67
2018-11-26T15:29:08.682Z,93.71
2018-11-26T15:31:39.706Z,93.73
2018-11-26T15:34:10.734Z,93.40
2018-11-26T15:36:41.695Z,93.35
2018-11-26T15:39:12.745Z,93.55
2018-11-26T15:41:43.651Z,93.50
2018-11-26T15:44:14.619Z,93.56
2018-11-26T15:46:45.792Z,93.37
2018-11-26T15:49:16.735Z,93.55
2018-11-26T15:51:47.658Z,93.53
2018-11-26T15:54:18.582Z,93.56
2018-11-26T15:56:49.547Z,93.70
2018-11-26T15:59:20.737Z,93.67
2018-11-26T16:01:51.680Z,93.63
2018-11-26T16:04:22.619Z,93.52
2018-11-26T16:06:53.726Z,93.54
2018-11-26T16:09:24.811Z,93.74
2018-11-26T16:11:55.627Z,93.69
2018-11-26T16:14:26.533Z,93.54
2018-11-26T16:16:57.525Z,93.71
2018-11-26T16:19:28.429Z,93.81
2018-11-26T16:21:59.353Z,93.70
2018-11-26T16:24:30.275Z,93.77
2018-11-26T16:27:01.535Z,93.74
2018-11-26T16:29:32.455Z,93.75
2018-11-26T16:32:03.488Z,93.76
2018-11-26T16:34:34.327Z,93.72
2018-11-26T16:37:05.269Z,93.82
2018-11-26T16:39:36.198Z,93.77
2018-11-26T16:42:07.111Z,93.67
2018-11-26T16:44:38.121Z,93.68
2018-11-26T16:47:09.063Z,93.81
2018-11-26T16:49:40.156Z,93.88
2018-11-26T16:52:11.003Z,93.81
2018-11-26T16:54:41.838Z,93.86
2018-11-26T16:57:12.838Z,93.75
2018-11-26T16:59:43.759Z,93.84
2018-11-26T17:02:14.701Z,93.92
2018-11-26T17:04:45.811Z,93.89
2018-11-26T17:07:16.723Z,93.92
2018-11-26T17:09:47.839Z,93.95
2018-11-26T17:12:18.808Z,93.86
2018-11-26T17:14:49.759Z,93.78
2018-11-26T17:17:20.682Z,93.81
2018-11-26T17:19:51.698Z,93.83
2018-11-26T17:22:22.636Z,93.75
2018-11-26T17:24:53.602Z,93.72
2018-11-26T17:27:24.763Z,93.85
2018-11-26T17:29:55.848Z,93.82
2018-11-26T17:32:26.895Z,93.72
2018-11-26T17:34:57.837Z,93.75
2018-11-26T17:37:29.103Z,93.79
2018-11-26T17:39:59.971Z,93.69
2018-11-26T17:42:30.897Z,93.61
2018-11-26T17:45:01.832Z,93.75
2018-11-26T17:47:33.194Z,93.73
2018-11-26T17:50:04.252Z,93.65
2018-11-26T17:52:35.104Z,93.73
2018-11-26T17:55:06.539Z,93.73
2018-11-26T17:57:37.560Z,93.71
2018-11-26T18:00:22.666Z,93.62
2018-11-26T18:02:53.588Z,93.78
2018-11-26T18:05:26.509Z,93.95
2018-11-26T18:08:14.593Z,93.84
2018-11-26T18:10:45.536Z,93.72
2018-11-26T18:13:16.725Z,93.73
2018-11-26T18:15:47.836Z,93.82
2018-11-26T18:18:20.181Z,93.79
2018-11-26T18:20:51.346Z,93.61
2018-11-26T18:23:22.205Z,93.71
2018-11-26T18:25:53.341Z,93.79
2018-11-26T18:28:24.264Z,93.66
2018-11-26T18:30:55.586Z,93.79
2018-11-26T18:33:26.507Z,93.63
2018-11-26T18:35:57.433Z,93.51
2018-11-26T18:38:28.448Z,93.47
2018-11-26T18:40:59.373Z,93.70
2018-11-26T18:43:30.393Z,93.53
2018-11-26T18:46:01.639Z,93.56
2018-11-26T18:48:32.563Z,93.57
2018-11-26T18:51:03.761Z,93.38
2018-11-26T18:53:34.833Z,93.30
2018-11-26T18:56:06.107Z,93.44
2018-11-26T18:58:38.085Z,93.59
2018-11-26T19:01:10.049Z,93.62
2018-11-26T19:03:41.259Z,93.47
2018-11-26T19:06:12.270Z,93.42
2018-11-26T19:08:43.181Z,93.68
2018-11-26T19:11:16.573Z,93.82
2018-11-26T19:14:00.046Z,93.59
2018-11-26T19:16:37.213Z,93.31
2018-11-26T19:19:08.409Z,93.46
2018-11-26T19:21:39.647Z,93.66
2018-11-26T19:24:10.671Z,93.82
2018-11-26T19:26:41.707Z,93.65
2018-11-26T19:29:12.736Z,93.46
2018-11-26T19:31:43.939Z,93.41
2018-11-26T19:34:14.792Z,93.30
2018-11-26T19:36:45.733Z,93.27
2018-11-26T19:39:16.738Z,93.38
2018-11-26T19:41:47.666Z,93.46
2018-11-26T19:44:18.741Z,93.37
2018-11-26T19:46:49.681Z,93.33
2018-11-26T19:49:20.777Z,93.50
2018-11-26T19:51:51.626Z,93.36
2018-11-26T19:54:22.659Z,93.31
2018-11-26T19:56:53.658Z,93.36
2018-11-26T19:59:24.683Z,93.46
2018-11-26T20:01:55.912Z,93.55
2018-11-26T20:04:47.726Z,93.72
2018-11-26T20:07:18.965Z,93.75
2018-11-26T20:09:50.243Z,93.45
2018-11-26T20:12:21.097Z,93.80
2018-11-26T20:14:52.338Z,93.70
2018-11-26T20:17:23.557Z,93.56
2018-11-26T20:19:54.520Z,93.78
2018-11-26T20:22:25.427Z,93.67
2018-11-26T20:24:56.365Z,93.52
2018-11-26T20:27:27.460Z,93.55
2018-11-26T20:29:58.494Z,93.57
2018-11-26T20:32:30.347Z,93.26
2018-11-26T20:35:01.278Z,93.28
2018-11-26T20:37:32.131Z,93.20
2018-11-26T20:40:03.405Z,93.27
2018-11-26T20:42:34.256Z,93.15
2018-11-26T20:45:06.507Z,93.05
2018-11-26T20:47:37.968Z,93.30
2018-11-26T20:50:30.704Z,93.20
2018-11-26T20:53:02.054Z,93.25
2018-11-26T20:55:33.697Z,93.55
2018-11-26T20:58:04.663Z,93.88
2018-11-26T21:00:38.018Z,93.53
2018-11-26T21:03:11.122Z,93.60
2018-11-26T21:05:43.063Z,93.66
2018-11-26T21:08:14.224Z,93.56
2018-11-26T21:10:45.298Z,93.29
2018-11-26T21:13:17.067Z,92.96
2018-11-26T21:15:48.634Z,92.98
2018-11-26T21:18:19.730Z,93.01
2018-11-26T21:20:53.941Z,93.04
2018-11-26T21:23:30.703Z,93.04
2018-11-26T21:26:03.982Z,93.25
2018-11-26T21:28:35.028Z,93.37
2018-11-26T21:31:06.577Z,93.36
2018-11-26T21:33:37.624Z,93.24
2018-11-26T21:36:08.895Z,93.37
2018-11-26T21:38:41.504Z,93.56
2018-11-26T21:41:12.441Z,93.35
2018-11-26T21:43:43.296Z,93.33
2018-11-26T21:46:14.485Z,93.56
2018-11-26T21:48:45.499Z,93.65
2018-11-26T21:51:16.685Z,93.57
2018-11-26T21:53:47.633Z,93.44
2018-11-26T21:56:18.785Z,93.35
2018-11-26T21:58:49.633Z,93.34
2018-11-26T22:01:20.588Z,93.31
2018-11-26T22:03:52.887Z,93.22
2018-11-26T22:06:23.705Z,92.95
2018-11-26T22:08:54.936Z,93.12
2018-11-26T22:11:30.248Z,92.93
2018-11-26T22:13:57.843Z,92.82
2018-11-26T22:16:28.772Z,93.22
2018-11-26T22:18:59.961Z,93.03
2018-11-26T22:21:30.993Z,92.97
2018-11-26T22:24:02.004Z,93.16
2018-11-26T22:26:33.176Z,93.25
2018-11-26T22:29:04.378Z,93.67
2018-11-26T22:31:35.309Z,93.34
2018-11-26T22:34:06.648Z,93.22
2018-11-26T22:36:37.729Z,93.16
2018-11-26T22:39:11.181Z,93.38
2018-11-26T22:41:42.020Z,93.36
2018-11-26T22:44:12.977Z,93.29
2018-11-26T22:46:44.147Z,93.56
2018-11-26T22:49:15.044Z,93.26
2018-11-26T22:51:51.306Z,93.07
2018-11-26T22:54:18.197Z,93.38
2018-11-26T22:56:49.142Z,93.22
2018-11-26T22:59:20.186Z,93.00
2018-11-26T23:01:51.199Z,92.99
2018-11-26T23:04:22.219Z,93.28
2018-11-26T23:06:53.386Z,93.12
2018-11-26T23:09:24.413Z,93.15
2018-11-26T23:11:55.412Z,93.18
2018-11-26T23:14:26.558Z,93.21
2018-11-26T23:16:58.319Z,93.16
2018-11-26T23:19:29.179Z,93.07
2018-11-26T23:22:00.022Z,93.34
2018-11-26T23:24:30.962Z,93.17
2018-11-26T23:27:02.151Z,92.94
2018-11-26T23:29:33.105Z,93.25
2018-11-26T23:32:04.017Z,93.57
2018-11-26T23:34:34.840Z,93.21
2018-11-26T23:37:06.412Z,93.31
2018-11-26T23:39:37.363Z,93.25
2018-11-26T23:42:08.624Z,93.12
2018-11-26T23:44:39.721Z,93.13
2018-11-26T23:47:10.823Z,93.16
2018-11-26T23:49:41.746Z,92.98
2018-11-26T23:52:12.670Z,93.10
2018-11-26T23:54:44.094Z,93.13
2018-11-26T23:57:15.188Z,93.11
2018-11-26T23:59:46.015Z,93.19
